Time;durP1;ratioP1;P1;durP2;ratioP2;P2;SDS_P1;SDS_P2;PMS_P1;PMS_P2;Temp;Humidity;BMP_temperature;BMP_pressure;BME280_temperature;BME280_humidity;BME280_pressure;Samples;Min_cycle;Max_cycle;Signal;HPM_P1;HPM_P2
2023/01/30 00:00:04;;;;;;;;;44.25;38.00;;;;;8.59;98.88;102238.13;5094675;27;47308;-82
2023/01/30 00:02:30;;;;;;;;;47.75;38.50;;;;;8.51;99.61;102237.03;5095170;27;45992;-82
2023/01/30 00:04:55;;;;;;;;;41.25;36.00;;;;;8.52;100.00;102244.84;5101719;27;45292;-82
2023/01/30 00:07:20;;;;;;;;;42.50;37.25;;;;;8.50;100.00;102248.59;5103214;27;45397;-82
2023/01/30 00:09:46;;;;;;;;;42.00;37.00;;;;;8.44;100.00;102236.69;5102276;27;45590;-82
2023/01/30 00:12:11;;;;;;;;;43.75;38.00;;;;;8.50;100.00;102252.06;5100739;27;47369;-83
2023/01/30 00:14:37;;;;;;;;;39.75;36.50;;;;;8.53;100.00;102251.00;5097344;27;45301;-82
2023/01/30 00:17:02;;;;;;;;;35.00;33.25;;;;;8.53;100.00;102251.84;5094904;27;45203;-82
2023/01/30 00:19:27;;;;;;;;;53.00;41.75;;;;;8.49;100.00;102244.25;5097205;27;46499;-82
2023/01/30 00:21:52;;;;;;;;;45.50;38.75;;;;;8.52;100.00;102233.41;5094119;27;46025;-82
2023/01/30 00:24:18;;;;;;;;;44.75;37.75;;;;;8.49;100.00;102225.69;5096939;27;45346;-81
2023/01/30 00:26:43;;;;;;;;;49.50;40.50;;;;;8.45;100.00;102231.25;5094335;27;45317;-81
2023/01/30 00:29:08;;;;;;;;;51.00;41.75;;;;;8.46;100.00;102235.59;5101258;27;45216;-82
2023/01/30 00:31:34;;;;;;;;;46.75;40.00;;;;;8.51;100.00;102221.13;5096878;27;47358;-82
2023/01/30 00:33:59;;;;;;;;;50.75;41.00;;;;;8.53;100.00;102217.38;5100280;27;45325;-82
2023/01/30 00:36:24;;;;;;;;;51.25;41.00;;;;;8.57;100.00;102224.16;5101876;27;45371;-82
2023/01/30 00:38:50;;;;;;;;;43.75;37.50;;;;;8.54;100.00;102213.81;5101437;27;45368;-82
2023/01/30 00:41:16;;;;;;;;;55.00;45.50;;;;;8.56;100.00;102203.09;5101638;27;46007;-82
2023/01/30 00:49:17;;;;;;;;;48.00;41.00;;;;;8.59;100.00;102197.50;5100862;27;45297;-82
2023/01/30 00:51:43;;;;;;;;;56.25;44.25;;;;;8.62;100.00;102193.78;5100907;27;45415;-82
2023/01/30 00:54:08;;;;;;;;;51.00;40.00;;;;;8.56;100.00;102187.19;5101669;27;45345;-82
2023/01/30 00:56:34;;;;;;;;;38.75;34.25;;;;;8.57;100.00;102181.78;5101030;27;45384;-82
2023/01/30 00:58:59;;;;;;;;;41.00;37.25;;;;;8.61;100.00;102185.00;5099697;27;46965;-83
2023/01/30 01:01:24;;;;;;;;;46.50;39.25;;;;;8.58;100.00;102179.94;5099502;27;47400;-82
2023/01/30 01:03:50;;;;;;;;;44.75;37.75;;;;;8.57;100.00;102179.13;5101268;27;45211;-83
2023/01/30 01:06:16;;;;;;;;;48.25;38.75;;;;;8.62;100.00;102173.41;5101681;27;45464;-83
2023/01/30 01:08:41;;;;;;;;;41.50;36.75;;;;;8.68;100.00;102174.75;5101386;27;45748;-83
2023/01/30 01:11:06;;;;;;;;;45.00;38.00;;;;;8.62;100.00;102173.41;5098949;27;47044;-83
2023/01/30 01:13:32;;;;;;;;;45.50;38.50;;;;;8.60;100.00;102164.78;5100918;27;45430;-82
2023/01/30 01:15:57;;;;;;;;;52.75;40.00;;;;;8.52;100.00;102162.72;5101054;27;45376;-83
2023/01/30 01:18:23;;;;;;;;;49.75;38.75;;;;;8.53;100.00;102167.03;5100963;27;45382;-82
2023/01/30 01:20:48;;;;;;;;;46.75;39.75;;;;;8.47;100.00;102159.56;5100650;27;46529;-83
2023/01/30 01:23:13;;;;;;;;;45.25;39.50;;;;;8.48;100.00;102155.97;5100741;27;45416;-83
2023/01/30 01:25:39;;;;;;;;;45.50;39.50;;;;;8.51;100.00;102157.53;5100959;27;45318;-82
2023/01/30 01:28:04;;;;;;;;;46.00;38.00;;;;;8.47;100.00;102146.31;5096178;27;47245;-83
2023/01/30 01:30:29;;;;;;;;;48.00;40.75;;;;;8.49;100.00;102149.72;5096127;27;46997;-83
2023/01/30 01:32:55;;;;;;;;;40.75;35.25;;;;;8.51;100.00;102152.22;5099416;27;45701;-83
2023/01/30 01:35:21;;;;;;;;;45.00;38.50;;;;;8.53;100.00;102145.00;5100556;27;45313;-83
2023/01/30 01:37:46;;;;;;;;;49.50;41.25;;;;;8.49;100.00;102143.56;5100679;27;45301;-84
2023/01/30 01:43:13;;;;;;;;;38.75;36.50;;;;;8.58;100.00;102149.00;5100718;27;45441;-83
2023/01/30 01:45:38;;;;;;;;;43.25;37.25;;;;;8.61;100.00;102139.09;5100562;27;45356;-83
2023/01/30 01:48:35;;;;;;;;;42.75;38.25;;;;;8.63;100.00;102139.81;5100448;27;45452;-83
2023/01/30 01:51:20;;;;;;;;;43.75;38.25;;;;;8.59;100.00;102136.56;5098952;27;48711;-83
2023/01/30 01:54:17;;;;;;;;;45.25;37.00;;;;;8.51;100.00;102125.72;5100513;27;45619;-83
2023/01/30 01:56:46;;;;;;;;;46.75;38.25;;;;;8.54;100.00;102129.00;5091678;27;45800;-83
2023/01/30 01:59:20;;;;;;;;;49.25;38.50;;;;;8.56;100.00;102124.41;5100157;27;45379;-83
2023/01/30 02:01:47;;;;;;;;;45.50;39.00;;;;;8.56;100.00;102128.88;5099178;27;45401;-83
2023/01/30 02:04:13;;;;;;;;;44.50;38.00;;;;;8.56;100.00;102136.84;5099966;27;45317;-83
2023/01/30 02:06:41;;;;;;;;;43.25;38.00;;;;;8.54;100.00;102131.66;5099286;27;45347;-83
2023/01/30 02:09:09;;;;;;;;;37.00;35.00;;;;;8.55;100.00;102129.84;5100231;27;45422;-83
2023/01/30 02:11:45;;;;;;;;;47.50;37.00;;;;;8.54;100.00;102133.47;5100063;27;45509;-83
2023/01/30 02:14:13;;;;;;;;;43.75;38.25;;;;;8.52;100.00;102136.22;5099842;27;45326;-83
2023/01/30 02:16:39;;;;;;;;;41.00;37.25;;;;;8.53;100.00;102139.72;5090065;27;45397;-82
2023/01/30 02:19:23;;;;;;;;;40.50;37.00;;;;;8.57;100.00;102134.06;5096422;27;46967;-83
2023/01/30 02:22:08;;;;;;;;;44.25;39.25;;;;;8.55;100.00;102124.53;5099670;27;45344;-83
2023/01/30 02:25:07;;;;;;;;;48.25;36.25;;;;;8.49;100.00;102117.06;5100068;27;45422;-82
2023/01/30 02:27:58;;;;;;;;;38.50;35.00;;;;;8.41;100.00;102107.94;5095280;27;45382;-82
2023/01/30 02:30:45;;;;;;;;;47.25;37.50;;;;;8.44;100.00;102099.72;5096333;27;45475;-83
2023/01/30 02:33:27;;;;;;;;;45.25;38.25;;;;;8.46;100.00;102111.06;5094977;27;48486;-83
2023/01/30 02:36:27;;;;;;;;;41.25;36.25;;;;;8.42;100.00;102117.59;5088152;27;45320;-83
2023/01/30 02:39:06;;;;;;;;;45.50;37.75;;;;;8.38;100.00;102108.19;5098649;27;45250;-83
2023/01/30 02:41:49;;;;;;;;;41.00;35.50;;;;;8.42;100.00;102114.09;5096653;27;45412;-82
2023/01/30 02:44:26;;;;;;;;;36.75;33.50;;;;;8.41;100.00;102107.94;5099356;27;45326;-82
2023/01/30 02:47:06;;;;;;;;;48.00;38.25;;;;;8.39;100.00;102112.53;5099177;27;45304;-83
2023/01/30 02:49:41;;;;;;;;;40.00;35.25;;;;;8.39;100.00;102115.19;5099249;27;45371;-83
2023/01/30 02:52:10;;;;;;;;;36.25;33.00;;;;;8.36;100.00;102119.88;5099874;27;45538;-83
2023/01/30 02:54:35;;;;;;;;;38.25;35.50;;;;;8.40;100.00;102129.25;5099181;27;45435;-83
2023/01/30 02:57:00;;;;;;;;;39.50;35.00;;;;;8.38;100.00;102118.78;5099574;27;45395;-83
2023/01/30 02:59:40;;;;;;;;;45.00;35.75;;;;;8.48;100.00;102125.97;5098096;27;45388;-84
2023/01/30 03:02:34;;;;;;;;;38.75;33.75;;;;;8.54;100.00;102136.13;5099748;27;45292;-83
2023/01/30 03:04:59;;;;;;;;;35.75;30.25;;;;;8.53;100.00;102126.47;5097636;27;48599;-83
2023/01/30 03:07:37;;;;;;;;;45.25;37.75;;;;;8.54;100.00;102125.50;5097534;27;45361;-82
2023/01/30 03:10:11;;;;;;;;;38.50;33.50;;;;;8.55;100.00;102121.88;5088642;27;45315;-83
2023/01/30 03:12:47;;;;;;;;;43.00;36.75;;;;;8.50;100.00;102118.75;5096198;27;46235;-84
2023/01/30 03:15:22;;;;;;;;;35.50;33.00;;;;;8.47;100.00;102111.88;5094443;27;46756;-83
2023/01/30 03:17:48;;;;;;;;;43.00;37.25;;;;;8.50;100.00;102119.59;5102784;27;45347;-84
2023/01/30 03:20:18;;;;;;;;;44.00;37.00;;;;;8.49;100.00;102119.72;5101633;27;45331;-83
2023/01/30 03:22:44;;;;;;;;;41.25;34.50;;;;;8.55;100.00;102128.03;5102775;27;45440;-82
2023/01/30 03:25:16;;;;;;;;;38.75;36.50;;;;;8.56;100.00;102128.88;5102561;27;46031;-83
2023/01/30 03:27:43;;;;;;;;;43.00;37.00;;;;;8.55;100.00;102143.94;5101256;27;45414;-83
2023/01/30 03:30:09;;;;;;;;;48.00;35.75;;;;;8.52;100.00;102128.25;5101144;27;45334;-83
2023/01/30 03:32:35;;;;;;;;;37.50;33.25;;;;;8.53;100.00;102119.34;5101063;27;46416;-83
2023/01/30 03:35:00;;;;;;;;;29.00;26.00;;;;;8.59;100.00;102126.81;5102319;27;46243;-83
2023/01/30 03:37:26;;;;;;;;;39.00;36.50;;;;;8.59;100.00;102125.97;5102691;27;45219;-83
2023/01/30 03:39:51;;;;;;;;;36.50;33.00;;;;;8.55;100.00;102127.19;5102649;27;45218;-82
2023/01/30 03:42:17;;;;;;;;;34.00;32.25;;;;;8.54;100.00;102122.88;5102638;27;45165;-82
2023/01/30 03:44:42;;;;;;;;;42.00;36.50;;;;;8.57;100.00;102133.22;5102218;27;45294;-83
2023/01/30 03:47:07;;;;;;;;;42.50;35.75;;;;;8.62;100.00;102117.75;5102569;27;45391;-82
2023/01/30 03:49:33;;;;;;;;;39.00;35.25;;;;;8.66;100.00;102113.06;5098958;27;45257;-82
2023/01/30 03:51:58;;;;;;;;;41.50;36.00;;;;;8.62;100.00;102104.50;5102302;27;45167;-83
2023/01/30 03:54:23;;;;;;;;;35.25;31.25;;;;;8.63;100.00;102081.50;5102407;27;45402;-82
2023/01/30 03:56:49;;;;;;;;;38.75;37.00;;;;;8.61;100.00;102088.72;5101972;27;45345;-82
2023/01/30 03:59:14;;;;;;;;;43.25;37.50;;;;;8.53;100.00;102079.59;5102530;27;45388;-82
2023/01/30 04:01:39;;;;;;;;;35.75;33.50;;;;;8.50;100.00;102086.97;5102149;27;45320;-83
2023/01/30 04:04:05;;;;;;;;;48.75;39.75;;;;;8.51;100.00;102089.50;5102021;27;46153;-82
2023/01/30 04:06:30;;;;;;;;;45.25;39.50;;;;;8.44;100.00;102089.13;5102811;27;45328;-83
2023/01/30 04:08:55;;;;;;;;;40.75;36.50;;;;;8.46;100.00;102097.81;5101115;27;45393;-83
2023/01/30 04:11:21;;;;;;;;;36.25;35.25;;;;;8.45;100.00;102095.28;5101896;27;45444;-83
2023/01/30 04:13:46;;;;;;;;;40.75;37.75;;;;;8.48;100.00;102086.25;5097286;27;47050;-83
2023/01/30 04:16:23;;;;;;;;;48.75;38.00;;;;;8.51;100.00;102084.19;5100206;27;45325;-83
2023/01/30 04:18:48;;;;;;;;;43.00;36.75;;;;;8.50;100.00;102087.78;5102255;27;45327;-83
2023/01/30 04:21:14;;;;;;;;;38.75;34.75;;;;;8.49;100.00;102077.31;5101018;27;45330;-82
2023/01/30 04:23:41;;;;;;;;;43.25;38.50;;;;;8.50;100.00;102073.72;5099574;27;46717;-82
2023/01/30 04:26:07;;;;;;;;;39.00;35.00;;;;;8.47;100.00;102061.53;5101638;27;45272;-82
2023/01/30 04:28:33;;;;;;;;;34.50;33.75;;;;;8.45;100.00;102060.84;5101953;27;45574;-83
2023/01/30 04:30:58;;;;;;;;;37.50;34.75;;;;;8.52;100.00;102074.41;5101688;27;45290;-82
2023/01/30 04:33:24;;;;;;;;;46.00;37.50;;;;;8.52;100.00;102079.72;5101807;27;45414;-83
2023/01/30 04:35:56;;;;;;;;;29.75;27.75;;;;;8.56;100.00;102086.50;5101704;27;45308;-83
2023/01/30 04:38:23;;;;;;;;;35.00;31.50;;;;;8.53;100.00;102084.88;5100482;27;45439;-83
2023/01/30 04:40:50;;;;;;;;;35.00;32.00;;;;;8.57;100.00;102081.06;5101812;27;45314;-82
2023/01/30 04:43:16;;;;;;;;;36.50;33.75;;;;;8.59;100.00;102086.22;5101183;27;45488;-83
2023/01/30 04:45:45;;;;;;;;;42.50;37.75;;;;;8.62;100.00;102093.09;5101575;27;45422;-83
2023/01/30 04:48:12;;;;;;;;;45.50;38.25;;;;;8.57;100.00;102082.84;5101660;27;45212;-83
2023/01/30 04:50:38;;;;;;;;;40.75;36.50;;;;;8.61;100.00;102081.63;5101354;27;45435;-83
2023/01/30 04:53:04;;;;;;;;;35.00;34.25;;;;;8.65;100.00;102091.00;5101083;27;45353;-83
2023/01/30 04:55:30;;;;;;;;;41.00;35.50;;;;;8.64;100.00;102091.97;5100312;27;45273;-83
2023/01/30 04:57:55;;;;;;;;;46.25;37.50;;;;;8.67;100.00;102093.53;5101516;27;45330;-83
2023/01/30 05:00:20;;;;;;;;;38.00;35.75;;;;;8.61;100.00;102080.78;5101455;27;45586;-83
2023/01/30 05:02:46;;;;;;;;;36.50;34.50;;;;;8.61;100.00;102078.97;5100281;27;45590;-83
2023/01/30 05:05:11;;;;;;;;;34.25;32.00;;;;;8.65;100.00;102076.94;5101203;27;45318;-83
2023/01/30 05:07:36;;;;;;;;;41.75;36.25;;;;;8.65;100.00;102075.09;5100581;27;45424;-83
2023/01/30 05:10:02;;;;;;;;;40.75;36.50;;;;;8.67;100.00;102078.47;5101294;27;45291;-83
2023/01/30 05:12:29;;;;;;;;;41.50;35.25;;;;;8.71;100.00;102084.38;5101040;27;46357;-83
2023/01/30 05:14:55;;;;;;;;;39.00;37.25;;;;;8.69;100.00;102084.50;5099857;27;45843;-83
2023/01/30 05:17:20;;;;;;;;;39.50;36.25;;;;;8.73;100.00;102085.06;5098347;27;45308;-82
2023/01/30 05:19:45;;;;;;;;;33.00;30.75;;;;;8.70;100.00;102077.38;5100973;27;45622;-83
2023/01/30 05:22:11;;;;;;;;;40.25;35.25;;;;;8.68;100.00;102071.38;5100717;27;45324;-83
2023/01/30 05:24:36;;;;;;;;;44.75;35.00;;;;;8.74;100.00;102086.72;5101031;27;45321;-82
2023/01/30 05:27:01;;;;;;;;;47.25;38.75;;;;;8.73;100.00;102076.25;5099465;27;45344;-82
2023/01/30 05:29:27;;;;;;;;;37.00;35.75;;;;;8.73;100.00;102071.81;5099494;27;47340;-83
2023/01/30 05:31:52;;;;;;;;;44.25;37.75;;;;;8.73;100.00;102082.41;5100789;27;45397;-83
2023/01/30 05:34:18;;;;;;;;;39.00;33.75;;;;;8.70;100.00;102062.31;5099464;27;45378;-83
2023/01/30 05:36:43;;;;;;;;;39.50;35.50;;;;;8.69;100.00;102052.69;5097590;27;45370;-82
2023/01/30 05:39:08;;;;;;;;;45.75;37.25;;;;;8.68;100.00;102064.25;5100945;27;45374;-83
2023/01/30 05:41:34;;;;;;;;;41.50;35.00;;;;;8.70;100.00;102058.81;5100543;27;45334;-83
2023/01/30 05:43:59;;;;;;;;;39.25;37.25;;;;;8.72;100.00;102056.88;5099336;27;45904;-82
2023/01/30 05:46:24;;;;;;;;;41.75;37.50;;;;;8.76;100.00;102060.94;5100643;27;45348;-84
2023/01/30 05:48:50;;;;;;;;;43.25;38.25;;;;;8.76;100.00;102050.34;5100615;27;45469;-84
2023/01/30 05:51:23;;;;;;;;;46.50;37.75;;;;;8.71;100.00;102050.72;5100266;27;46145;-83
2023/01/30 05:53:49;;;;;;;;;45.50;37.00;;;;;8.71;100.00;102049.91;5087039;27;45793;-82
2023/01/30 05:56:14;;;;;;;;;44.00;37.50;;;;;8.64;100.00;102040.75;5100149;27;45331;-83
2023/01/30 05:58:40;;;;;;;;;42.75;37.50;;;;;8.65;100.00;102042.47;5100596;27;45534;-84
2023/01/30 06:01:09;;;;;;;;;47.25;39.75;;;;;8.66;100.00;102057.41;5098579;27;47529;-83
2023/01/30 06:03:35;;;;;;;;;46.50;36.75;;;;;8.68;100.00;102047.50;5100556;27;45314;-83
2023/01/30 06:06:02;;;;;;;;;34.25;29.50;;;;;8.67;100.00;102043.16;5099663;27;45289;-83
2023/01/30 06:08:28;;;;;;;;;41.50;36.25;;;;;8.59;100.00;102039.34;5099083;27;47055;-83
2023/01/30 06:10:53;;;;;;;;;42.25;36.75;;;;;8.44;100.00;102038.78;5098831;27;46006;-83
2023/01/30 06:13:19;;;;;;;;;50.25;38.50;;;;;8.33;100.00;102037.03;5100033;27;45333;-84
2023/01/30 06:15:44;;;;;;;;;47.00;37.50;;;;;8.30;100.00;102036.47;5100224;27;45267;-83
2023/01/30 06:18:09;;;;;;;;;41.75;36.75;;;;;8.30;100.00;102041.75;5100184;27;45521;-84
2023/01/30 06:20:35;;;;;;;;;43.00;38.25;;;;;8.27;100.00;102045.50;5096570;27;47603;-82
2023/01/30 06:23:00;;;;;;;;;47.75;40.25;;;;;8.30;100.00;102039.13;5095053;27;45387;-82
2023/01/30 06:25:26;;;;;;;;;43.25;36.75;;;;;8.30;100.00;102029.38;5094854;27;45710;-82
2023/01/30 06:27:51;;;;;;;;;42.00;36.75;;;;;8.30;100.00;102024.06;5095283;27;47288;-82
2023/01/30 06:30:17;;;;;;;;;43.00;36.75;;;;;8.26;100.00;102035.88;5094405;27;45498;-83
2023/01/30 06:32:42;;;;;;;;;39.75;35.50;;;;;8.24;100.00;102047.56;5100143;27;45384;-81
2023/01/30 06:35:08;;;;;;;;;43.00;36.50;;;;;8.19;100.00;102034.69;5096780;27;45321;-82
2023/01/30 06:37:33;;;;;;;;;46.00;39.25;;;;;8.22;100.00;102060.94;5098393;27;47017;-83
2023/01/30 06:39:59;;;;;;;;;46.75;36.00;;;;;8.21;100.00;102059.25;5099895;27;45546;-83
2023/01/30 06:42:24;;;;;;;;;48.75;39.75;;;;;8.22;100.00;102052.97;5100074;27;45328;-83
2023/01/30 06:44:49;;;;;;;;;47.50;37.75;;;;;8.27;100.00;102061.41;5099766;27;45356;-83
2023/01/30 06:47:15;;;;;;;;;49.00;42.00;;;;;8.27;100.00;102060.56;5099055;27;45327;-83
2023/01/30 06:49:40;;;;;;;;;34.50;33.25;;;;;8.37;100.00;102079.16;5099407;27;45420;-82
2023/01/30 06:52:05;;;;;;;;;42.75;37.00;;;;;8.35;100.00;102087.25;5099876;27;45680;-83
2023/01/30 06:54:30;;;;;;;;;37.75;35.00;;;;;8.29;100.00;102072.69;5095274;27;45351;-82
2023/01/30 06:56:56;;;;;;;;;37.00;32.00;;;;;8.31;100.00;102083.16;5099868;27;45244;-82
2023/01/30 06:59:21;;;;;;;;;45.25;39.50;;;;;8.32;100.00;102079.56;5085805;27;46372;-82
2023/01/30 07:01:46;;;;;;;;;49.25;40.00;;;;;8.37;100.00;102079.16;5099803;27;45353;-80
2023/01/30 07:04:12;;;;;;;;;57.25;45.00;;;;;8.39;100.00;102074.59;5095437;27;45353;-80
2023/01/30 07:06:37;;;;;;;;;46.00;38.50;;;;;8.43;100.00;102086.63;5098109;27;45458;-81
2023/01/30 07:09:03;;;;;;;;;51.75;42.00;;;;;8.39;100.00;102087.84;5099195;27;46241;-81
2023/01/30 07:11:29;;;;;;;;;41.00;36.50;;;;;8.41;100.00;102099.16;5094584;27;45279;-81
2023/01/30 07:13:55;;;;;;;;;44.00;37.25;;;;;8.40;100.00;102090.38;5092904;27;45371;-79
2023/01/30 07:16:27;;;;;;;;;50.75;42.25;;;;;8.39;100.00;102095.78;5099212;27;45507;-81
2023/01/30 07:18:52;;;;;;;;;44.75;38.25;;;;;8.40;100.00;102097.47;5098973;27;45933;-83
2023/01/30 07:21:18;;;;;;;;;46.75;39.25;;;;;8.39;100.00;102087.84;5099541;27;45586;-82
2023/01/30 07:23:45;;;;;;;;;42.75;37.75;;;;;8.47;100.00;102095.97;5099841;27;45339;-82
2023/01/30 07:26:10;;;;;;;;;39.00;35.25;;;;;8.49;100.00;102107.31;5099563;27;45388;-81
2023/01/30 07:28:36;;;;;;;;;34.75;31.50;;;;;8.40;100.00;102097.47;5100200;27;46499;-82
2023/01/30 07:31:01;;;;;;;;;40.00;37.25;;;;;8.49;100.00;102112.59;5096179;27;45462;-82
2023/01/30 07:33:26;;;;;;;;;36.25;32.25;;;;;8.46;100.00;102110.22;5085970;27;45500;-81
2023/01/30 07:35:52;;;;;;;;;40.00;34.00;;;;;8.46;100.00;102107.56;5095360;27;46403;-80
2023/01/30 07:38:17;;;;;;;;;30.25;27.50;;;;;8.46;100.00;102110.22;5091097;27;45322;-81
2023/01/30 07:40:43;;;;;;;;;47.25;37.75;;;;;8.45;100.00;102108.53;5090623;27;45296;-82
2023/01/30 07:43:12;;;;;;;;;45.75;39.00;;;;;8.49;100.00;102111.75;5102224;27;45467;-82
2023/01/30 07:45:41;;;;;;;;;41.75;36.75;;;;;8.49;100.00;102101.16;5083159;27;47250;-82
2023/01/30 07:48:08;;;;;;;;;37.50;36.00;;;;;8.24;100.00;102096.09;5102565;27;45337;-82
2023/01/30 07:50:34;;;;;;;;;41.00;37.00;;;;;8.53;100.00;102103.44;5097118;27;45314;-79
2023/01/30 07:53:02;;;;;;;;;40.00;36.67;;;;;8.53;100.00;102102.59;5089821;27;45407;-85
2023/01/30 07:55:28;;;;;;;;;33.50;32.50;;;;;8.58;100.00;102111.03;5091262;27;47393;-83
2023/01/30 07:57:53;;;;;;;;;42.75;35.25;;;;;8.61;100.00;102099.31;5088262;27;45765;-84
2023/01/30 08:00:19;;;;;;;;;45.00;36.00;;;;;8.54;100.00;102107.81;5090176;27;44793;-83
2023/01/30 08:02:44;;;;;;;;;39.50;35.00;;;;;8.58;100.00;102119.84;5099807;27;45334;-82
2023/01/30 08:05:09;;;;;;;;;46.00;37.50;;;;;8.54;100.00;102112.25;5102109;27;45337;-82
2023/01/30 08:07:35;;;;;;;;;38.75;34.00;;;;;8.62;100.00;102117.75;5112880;27;46113;-82
2023/01/30 08:10:00;;;;;;;;;41.75;36.75;;;;;8.62;100.00;102120.41;5091290;27;45377;-82
2023/01/30 08:12:26;;;;;;;;;37.50;35.25;;;;;8.67;100.00;102115.56;5101912;27;45414;-82
2023/01/30 08:14:51;;;;;;;;;40.25;34.75;;;;;8.65;100.00;102114.84;5104371;27;45357;-82
2023/01/30 08:17:17;;;;;;;;;40.75;34.25;;;;;8.71;100.00;102122.31;5104735;27;46340;-82
2023/01/30 08:19:42;;;;;;;;;42.75;36.00;;;;;8.77;100.00;102128.06;5102005;27;45387;-83
2023/01/30 08:22:07;;;;;;;;;46.75;38.50;;;;;8.73;100.00;102122.19;5089844;27;45331;-82
2023/01/30 08:24:33;;;;;;;;;57.50;45.00;;;;;8.73;100.00;102129.28;5103057;27;45490;-82
2023/01/30 08:26:59;;;;;;;;;38.00;35.00;;;;;8.80;100.00;102135.78;5097555;27;47092;-80
2023/01/30 08:29:24;;;;;;;;;41.75;35.50;;;;;8.84;100.00;102142.50;5107949;27;45861;-81
2023/01/30 08:31:49;;;;;;;;;40.50;37.50;;;;;8.87;100.00;102138.75;5100878;27;45435;-82
2023/01/30 08:34:15;;;;;;;;;40.25;33.50;;;;;8.92;100.00;102141.84;5108935;27;46283;-81
2023/01/30 08:36:40;;;;;;;;;39.50;34.50;;;;;8.93;100.00;102132.94;5104637;27;45412;-81
2023/01/30 08:39:05;;;;;;;;;37.75;35.50;;;;;8.92;100.00;102123.31;5104063;27;45598;-81
2023/01/30 08:41:31;;;;;;;;;36.75;34.50;;;;;8.71;100.00;102126.78;5101912;27;45256;-81
2023/01/30 08:43:56;;;;;;;;;39.75;36.25;;;;;8.71;100.00;102130.25;5102973;27;45537;-81
2023/01/30 08:46:21;;;;;;;;;32.25;29.00;;;;;8.71;100.00;102142.69;5105210;27;46374;-81
2023/01/30 08:48:47;;;;;;;;;36.50;34.00;;;;;8.84;100.00;102145.97;5100564;27;45361;-81
2023/01/30 08:51:13;;;;;;;;;42.00;33.50;;;;;8.89;100.00;102150.88;5091671;27;45366;-82
2023/01/30 08:53:39;;;;;;;;;36.75;34.50;;;;;8.77;100.00;102150.09;5087742;27;46109;-81
2023/01/30 08:56:05;;;;;;;;;38.50;34.75;;;;;8.77;100.00;102154.59;5100780;27;45355;-82
2023/01/30 08:58:30;;;;;;;;;36.75;34.25;;;;;8.79;100.00;102148.19;5100908;27;45473;-82
2023/01/30 09:00:55;;;;;;;;;38.00;33.50;;;;;8.79;100.00;102153.47;5096271;27;45426;-82
2023/01/30 09:03:21;;;;;;;;;41.25;36.00;;;;;8.98;100.00;102153.75;5082036;27;45372;-82
2023/01/30 09:05:46;;;;;;;;;44.75;36.25;;;;;8.83;100.00;102156.72;5090202;27;45474;-83
2023/01/30 09:08:12;;;;;;;;;35.75;30.25;;;;;8.89;100.00;102160.69;5111355;27;45336;-81
2023/01/30 09:10:37;;;;;;;;;40.75;35.50;;;;;8.72;100.00;102152.31;5104643;27;45258;-84
2023/01/30 09:13:04;;;;;;;;;40.75;33.25;;;;;8.70;100.00;102149.78;5087807;27;47252;-87
2023/01/30 09:15:30;;;;;;;;;37.00;34.75;;;;;8.78;100.00;102156.25;5082037;27;45399;-83
2023/01/30 09:17:55;;;;;;;;;34.00;33.50;;;;;8.78;100.00;102149.16;5084030;27;45641;-86
2023/01/30 09:20:21;;;;;;;;;36.75;34.00;;;;;8.83;100.00;102154.91;5099062;27;45569;-83
2023/01/30 09:22:46;;;;;;;;;35.50;34.00;;;;;8.81;100.00;102156.00;5101179;27;45457;-86
2023/01/30 09:25:11;;;;;;;;;19.00;19.00;;;;;8.79;100.00;102149.97;5090522;27;45882;-88
2023/01/30 09:27:37;;;;;;;;;40.00;35.25;;;;;8.88;100.00;102159.81;5102400;27;45187;-88
2023/01/30 09:30:04;;;;;;;;;35.25;32.25;;;;;8.90;100.00;102168.50;5099552;27;45298;-86
2023/01/30 09:32:30;;;;;;;;;37.25;33.25;;;;;8.96;100.00;102175.09;5110391;27;45361;-86
2023/01/30 09:34:55;;;;;;;;;34.00;30.67;;;;;9.04;100.00;102171.81;5107546;27;45609;-86
2023/01/30 09:37:20;;;;;;;;;32.75;31.00;;;;;9.09;100.00;102164.28;5087656;27;44696;-86
2023/01/30 09:39:46;;;;;;;;;37.33;32.33;;;;;9.05;100.00;102157.56;5094542;27;45504;-86
2023/01/30 09:42:41;;;;;;;;;33.33;30.33;;;;;9.29;100.00;102172.38;5100360;27;45567;-86
2023/01/30 09:45:28;;;;;;;;;28.67;28.00;;;;;9.46;100.00;102157.69;5100345;27;45932;-90
2023/01/30 09:48:05;;;;;;;;;35.33;34.00;;;;;9.53;100.00;102152.66;5102013;27;45341;-85
2023/01/30 09:50:56;;;;;;;;;32.67;29.67;;;;;9.57;100.00;102167.34;5100510;27;45514;-87
2023/01/30 09:53:36;;;;;;;;;33.00;29.67;;;;;9.58;100.00;102145.97;5086959;27;45322;-84
2023/01/30 09:56:02;;;;;;;;;38.00;33.00;;;;;9.72;100.00;102152.75;5095456;27;47214;-82
2023/01/30 09:58:41;;;;;;;;;37.67;30.67;;;;;9.78;100.00;102150.53;5100498;27;45514;-87
2023/01/30 10:01:18;;;;;;;;;36.67;31.67;;;;;9.82;100.00;102141.34;5092084;27;45345;-86
2023/01/30 10:04:09;;;;;;;;;33.67;32.00;;;;;9.91;100.00;102152.97;5093803;27;46462;-86
2023/01/30 10:06:49;;;;;;;;;36.33;33.00;;;;;9.93;100.00;102156.31;5096669;27;47709;-89
2023/01/30 10:09:27;;;;;;;;;32.00;29.50;;;;;10.01;100.00;102160.94;5097053;27;45460;-90
2023/01/30 10:12:03;;;;;;;;;31.67;30.67;;;;;9.98;100.00;102160.28;5098385;27;45229;-86
2023/01/30 10:14:43;;;;;;;;;26.67;26.00;;;;;10.09;100.00;102169.09;5097277;27;46173;-86
2023/01/30 10:17:33;;;;;;;;;35.00;31.67;;;;;10.13;100.00;102173.16;5100678;27;45777;-85
2023/01/30 10:20:05;;;;;;;;;33.67;32.67;;;;;10.14;100.00;102177.50;5085964;27;45258;-87
2023/01/30 10:22:33;;;;;;;;;32.67;30.67;;;;;10.20;100.00;102186.72;5083998;27;45236;-87
2023/01/30 10:25:05;;;;;;;;;29.00;28.33;;;;;10.21;100.00;102199.88;5101314;27;46224;-84
2023/01/30 10:27:32;;;;;;;;;33.33;32.67;;;;;10.19;100.00;102185.06;5099528;27;46376;-85
2023/01/30 10:30:01;;;;;;;;;34.67;33.00;;;;;10.27;100.00;102189.69;5100023;27;45423;-86
2023/01/30 10:32:40;;;;;;;;;34.67;31.00;;;;;10.32;100.00;102190.09;5097513;27;45725;-85
2023/01/30 10:35:21;;;;;;;;;41.33;36.00;;;;;10.36;100.00;102186.22;5085628;27;46279;-84
2023/01/30 10:37:57;;;;;;;;;33.67;26.00;;;;;10.39;100.00;102201.03;5088820;27;46660;-84
2023/01/30 10:40:38;;;;;;;;;28.00;27.67;;;;;10.36;100.00;102192.34;5100292;27;45496;-86
2023/01/30 10:43:18;;;;;;;;;33.33;28.33;;;;;10.31;100.00;102175.16;5099087;27;45305;-85
2023/01/30 10:45:56;;;;;;;;;28.33;23.00;;;;;10.34;100.00;102166.91;5082077;27;46023;-86
2023/01/30 10:49:00;;;;;;;;;34.67;30.33;;;;;10.38;100.00;102162.16;5079166;28;47083;-83
2023/01/30 10:51:25;;;;;;;;;27.00;23.67;;;;;10.35;100.00;102158.78;5094789;27;45398;-85
2023/01/30 10:53:59;;;;;;;;;32.00;26.33;;;;;10.36;100.00;102154.34;5101250;27;45514;-86
2023/01/30 10:57:14;;;;;;;;;34.67;32.00;;;;;10.38;100.00;102157.66;5091664;27;45432;-85
2023/01/30 10:59:46;;;;;;;;;28.33;25.00;;;;;10.44;100.00;102149.16;5098903;27;48225;-87
2023/01/30 11:02:46;;;;;;;;;28.67;26.00;;;;;10.45;100.00;102144.69;5099763;27;45493;-87
2023/01/30 11:05:19;;;;;;;;;28.00;24.67;;;;;10.53;100.00;102144.84;5090375;27;45385;-84
2023/01/30 11:07:46;;;;;;;;;31.00;28.00;;;;;10.58;100.00;102144.44;5101298;27;45828;-87
2023/01/30 11:10:21;;;;;;;;;34.33;30.33;;;;;10.64;100.00;102140.38;5098396;27;47378;-86
2023/01/30 11:12:47;;;;;;;;;23.67;18.00;;;;;10.58;100.00;102139.97;5099387;27;45368;-86
2023/01/30 11:15:13;;;;;;;;;26.67;24.67;;;;;10.70;100.00;102145.13;5101615;27;45292;-84
2023/01/30 11:17:44;;;;;;;;;32.00;28.33;;;;;10.75;100.00;102153.53;5098693;27;45478;-86
2023/01/30 11:20:15;;;;;;;;;29.00;27.33;;;;;10.81;100.00;102149.47;5095005;27;47146;-85
2023/01/30 11:22:59;;;;;;;;;29.33;25.67;;;;;10.83;100.00;102158.13;5097306;27;45219;-86
2023/01/30 11:25:25;;;;;;;;;32.33;27.67;;;;;10.81;100.00;102168.91;5101163;27;45333;-85